Etusivu
METAR-TAF:

METAR-TAF

Lentoasemat :

Isbell Field

Fort Payne, Alabama, Yhdysvallat

Leveyspiiri: 34-28-25N, Pituuspiiri: 085-43-17W, korkeus merenpinnasta: 267 m

Tämänhetkinen sää

Tämä raportti tehtiin 38 minuuttia sitten, kello 13.55 UTC
Tuuli 3 kn lännestä/lounaasta
Lämpötila 17°C
Kosteus 88%
Ilmanpaine 1013 hPa
Näkyvyys: 16.1 km
selkeää

METAR: K4A9 251355Z AUTO 25003KT 10SM CLR 17/15 A2992 RMK AO2 T01720154

Aika: 09:33 (14:33 UTC)


TAF: puuttuu

Säähavainnot ja -ennusteet yli 4000 lentoasemalta (METAR- ja TAF-raportit).

Käytössä olevat sääasemat on merkitty karttaan keltaisilla ja punaisilla pisteillä.

Aseta hiiri pisteen päälle nähdäksesi sääaseman nimen.

Klikkaa sitten nähdäksesi säähavainnot ja -ennusteet.

Kartan vaihtaminen: klikkaa mustalla rastilla varustettuja vihreitä pisteitä, niin voit zoomata sisään; viivalla varustettua vihreää pistettä, niin voit zoomata ulos tai vihreitä nuolia, niin pääset viereisille kartoille.


METAR-TAF: